createdAt,value
2022-12-01T00:00:24.094Z,24.58
2022-12-01T00:03:26.077Z,27.77
2022-12-01T00:06:27.514Z,27.65
2022-12-01T00:09:47.978Z,28.38
2022-12-01T00:12:49.661Z,27.63
2022-12-01T00:15:51.047Z,27.30
2022-12-01T00:18:53.489Z,25.85
2022-12-01T00:24:56.292Z,26.33
2022-12-01T00:27:57.687Z,26.73
2022-12-01T00:31:00.069Z,25.30
2022-12-01T00:37:02.953Z,24.30
2022-12-01T00:40:05.435Z,28.35
2022-12-01T00:46:08.691Z,29.20
2022-12-01T00:49:13.290Z,28.33
2022-12-01T00:52:17.222Z,27.77
2022-12-01T00:55:18.789Z,27.65
2022-12-01T00:58:21.002Z,28.23
2022-12-01T01:01:22.821Z,30.48
2022-12-01T01:04:24.553Z,27.52
2022-12-01T01:07:26.052Z,30.85
2022-12-01T01:10:28.629Z,28.20
2022-12-01T01:13:30.483Z,29.10
2022-12-01T01:16:32.424Z,28.55
2022-12-01T01:19:33.839Z,27.85
2022-12-01T01:22:35.441Z,27.40
2022-12-01T01:25:36.894Z,29.40
2022-12-01T01:28:41.431Z,28.43
2022-12-01T01:31:42.841Z,34.45
2022-12-01T01:34:45.283Z,32.75
2022-12-01T01:40:48.084Z,28.80
2022-12-01T01:43:58.165Z,27.50
2022-12-01T01:46:59.555Z,35.42
2022-12-01T01:50:06.473Z,30.05
2022-12-01T01:53:12.303Z,26.27
2022-12-01T01:56:13.750Z,26.13
2022-12-01T01:59:31.599Z,30.23
2022-12-01T02:02:40.369Z,25.25
2022-12-01T02:05:44.700Z,25.88
2022-12-01T02:08:46.091Z,25.80
2022-12-01T02:12:11.271Z,23.52
2022-12-01T02:15:25.572Z,24.77
2022-12-01T02:18:57.130Z,25.67
2022-12-01T02:22:18.288Z,27.45
2022-12-01T02:25:26.893Z,27.60
2022-12-01T02:29:00.070Z,23.30
2022-12-01T02:32:15.570Z,26.67
2022-12-01T02:35:23.101Z,25.33
2022-12-01T02:38:45.083Z,24.33
2022-12-01T02:41:52.658Z,25.25
2022-12-01T02:44:55.668Z,22.65
2022-12-01T02:48:01.913Z,21.90
2022-12-01T02:51:17.982Z,26.60
2022-12-01T02:54:21.518Z,21.92
2022-12-01T02:57:23.606Z,19.20
2022-12-01T03:00:25.087Z,20.27
2022-12-01T03:03:29.514Z,19.87
2022-12-01T03:06:55.736Z,23.23
2022-12-01T03:10:09.396Z,21.67
2022-12-01T03:13:26.598Z,20.85
2022-12-01T03:16:41.665Z,23.17
2022-12-01T03:19:56.033Z,22.98
2022-12-01T03:23:09.380Z,23.30
2022-12-01T03:26:16.636Z,22.67
2022-12-01T03:29:21.888Z,25.48
2022-12-01T03:32:49.911Z,21.73
2022-12-01T03:35:59.767Z,23.63
2022-12-01T03:39:06.981Z,21.88
2022-12-01T03:42:23.669Z,20.42
2022-12-01T03:45:40.038Z,19.75
2022-12-01T03:48:42.183Z,20.58
2022-12-01T03:51:56.179Z,22.83
2022-12-01T03:55:16.623Z,22.33
2022-12-01T03:58:28.363Z,22.92
2022-12-01T04:01:32.761Z,21.27
2022-12-01T04:04:34.356Z,23.17
2022-12-01T04:07:37.637Z,24.13
2022-12-01T04:10:39.118Z,22.17
2022-12-01T04:13:40.490Z,24.87
2022-12-01T04:16:41.867Z,24.17
2022-12-01T04:19:43.228Z,23.42
2022-12-01T04:22:45.113Z,23.98
2022-12-01T04:25:46.547Z,22.73
2022-12-01T04:28:48.638Z,26.20
2022-12-01T04:31:50.216Z,22.15
2022-12-01T04:34:51.712Z,24.15
2022-12-01T04:37:53.088Z,22.15
2022-12-01T04:40:54.458Z,22.20
2022-12-01T04:43:56.554Z,23.45
2022-12-01T04:46:58.033Z,23.48
2022-12-01T04:50:00.487Z,24.40
2022-12-01T04:56:04.087Z,23.77
2022-12-01T04:59:05.505Z,23.65
2022-12-01T05:02:07.430Z,22.20
2022-12-01T05:05:10.214Z,25.75
2022-12-01T05:08:11.774Z,25.30
2022-12-01T05:11:14.622Z,26.80
2022-12-01T05:14:16.074Z,27.00
2022-12-01T05:17:17.519Z,23.83
2022-12-01T05:20:41.052Z,23.67
2022-12-01T05:23:42.470Z,24.23
2022-12-01T05:26:44.767Z,25.03
2022-12-01T05:29:46.434Z,25.65
2022-12-01T05:32:47.964Z,24.42
2022-12-01T05:35:49.985Z,25.15
2022-12-01T05:38:51.700Z,27.48
2022-12-01T05:41:53.859Z,28.60
2022-12-01T05:44:55.414Z,26.17
2022-12-01T05:47:58.175Z,27.97
2022-12-01T05:50:59.574Z,23.05
2022-12-01T05:54:01.311Z,25.58
2022-12-01T05:57:02.751Z,30.05
2022-12-01T06:00:06.136Z,31.65
2022-12-01T06:03:13.211Z,26.85
2022-12-01T06:06:14.669Z,25.83
2022-12-01T06:09:16.103Z,26.83
2022-12-01T06:12:18.199Z,28.90
2022-12-01T06:15:19.603Z,26.83
2022-12-01T06:18:20.980Z,27.35
2022-12-01T06:21:22.472Z,29.15
2022-12-01T06:24:24.059Z,35.00
2022-12-01T06:27:25.594Z,30.63
2022-12-01T06:30:27.051Z,31.20
2022-12-01T06:33:28.427Z,28.37
2022-12-01T06:36:29.821Z,28.23
2022-12-01T06:39:31.207Z,27.67
2022-12-01T06:42:32.800Z,30.80
2022-12-01T06:45:34.214Z,29.97
2022-12-01T06:48:35.647Z,29.30
2022-12-01T06:51:37.065Z,29.00
2022-12-01T06:54:39.552Z,31.05
2022-12-01T07:00:46.372Z,28.45
2022-12-01T07:03:50.920Z,31.77
2022-12-01T07:06:52.350Z,28.55
2022-12-01T07:09:53.791Z,29.77
2022-12-01T07:12:58.405Z,38.40
2022-12-01T07:15:59.870Z,33.95
2022-12-01T07:19:01.316Z,33.37
2022-12-01T07:22:03.071Z,33.75
2022-12-01T07:25:05.123Z,32.30
2022-12-01T07:28:06.604Z,29.27
2022-12-01T07:31:11.000Z,33.90
2022-12-01T07:34:15.873Z,30.55
2022-12-01T07:37:17.482Z,33.60
2022-12-01T07:40:18.968Z,32.25
2022-12-01T07:43:20.423Z,33.75
2022-12-01T07:46:24.751Z,34.10
2022-12-01T07:49:26.444Z,30.75
2022-12-01T07:52:27.839Z,33.78
2022-12-01T07:55:29.226Z,31.98
2022-12-01T07:58:31.099Z,32.00
2022-12-01T08:01:32.504Z,33.85
2022-12-01T08:04:34.021Z,32.22
2022-12-01T08:07:35.447Z,31.67
2022-12-01T08:10:37.064Z,36.65
2022-12-01T08:13:39.231Z,33.57
2022-12-01T08:16:40.640Z,43.20
2022-12-01T08:19:42.043Z,37.28
2022-12-01T08:22:43.489Z,36.22
2022-12-01T08:25:44.868Z,38.42
2022-12-01T08:28:47.093Z,31.48
2022-12-01T08:31:49.035Z,43.92
2022-12-01T08:34:53.546Z,40.42
2022-12-01T08:37:55.200Z,34.45
2022-12-01T08:41:04.016Z,38.47
2022-12-01T08:44:05.462Z,35.83
2022-12-01T08:47:06.916Z,34.87
2022-12-01T08:50:08.624Z,36.27
2022-12-01T08:53:10.030Z,40.40
2022-12-01T08:56:24.289Z,35.22
2022-12-01T08:59:25.878Z,36.45
2022-12-01T09:02:27.550Z,34.90
2022-12-01T09:05:29.173Z,38.03
2022-12-01T09:08:31.071Z,38.90
2022-12-01T09:11:32.594Z,36.65
2022-12-01T09:14:38.130Z,42.53
2022-12-01T09:17:39.560Z,41.28
2022-12-01T09:20:40.986Z,37.70
2022-12-01T09:23:42.684Z,40.67
2022-12-01T09:26:44.160Z,36.35
2022-12-01T09:29:45.572Z,34.03
2022-12-01T09:32:46.945Z,34.95
2022-12-01T09:35:48.450Z,39.47
2022-12-01T09:38:49.969Z,37.00
2022-12-01T09:41:59.471Z,38.67
2022-12-01T09:45:04.279Z,39.65
2022-12-01T09:48:07.758Z,40.80
2022-12-01T09:51:14.747Z,37.47
2022-12-01T09:54:16.176Z,41.25
2022-12-01T09:57:34.779Z,39.50
2022-12-01T10:00:42.182Z,37.83
2022-12-01T10:03:52.797Z,40.67
2022-12-01T10:07:00.875Z,37.53
2022-12-01T10:10:11.788Z,35.25
2022-12-01T10:13:19.570Z,36.38
2022-12-01T10:16:29.357Z,37.17
2022-12-01T10:19:42.567Z,36.05
2022-12-01T10:23:12.985Z,35.35
2022-12-01T10:26:34.474Z,36.67
2022-12-01T10:29:46.513Z,36.92
2022-12-01T10:32:56.208Z,35.95
2022-12-01T10:35:57.919Z,35.83
2022-12-01T10:39:00.595Z,37.45
2022-12-01T10:42:15.011Z,36.28
2022-12-01T10:45:25.670Z,35.03
2022-12-01T10:48:27.182Z,37.10
2022-12-01T10:51:28.721Z,39.97
2022-12-01T10:54:36.360Z,35.83
2022-12-01T10:57:37.938Z,37.65
2022-12-01T11:04:20.993Z,35.53
2022-12-01T11:07:34.663Z,34.35
2022-12-01T11:10:37.216Z,41.85
2022-12-01T11:13:42.052Z,34.78
2022-12-01T11:16:49.970Z,39.72
2022-12-01T11:19:52.234Z,39.88
2022-12-01T11:23:30.664Z,37.78
2022-12-01T11:26:34.566Z,38.35
2022-12-01T11:29:38.128Z,37.15
2022-12-01T11:32:39.919Z,38.30
2022-12-01T11:35:47.753Z,38.75
2022-12-01T11:38:50.687Z,39.03
2022-12-01T11:41:56.679Z,36.78
2022-12-01T11:45:25.796Z,37.38
2022-12-01T11:48:29.676Z,38.55
2022-12-01T11:51:37.874Z,39.03
2022-12-01T11:54:55.383Z,44.30
2022-12-01T11:58:03.820Z,38.65
2022-12-01T12:01:22.016Z,40.03
2022-12-01T12:04:52.188Z,35.75
2022-12-01T12:08:15.642Z,36.97
2022-12-01T12:11:34.734Z,35.55
2022-12-01T12:15:01.114Z,36.75
2022-12-01T12:18:47.286Z,42.10
2022-12-01T12:22:03.911Z,41.95
2022-12-01T12:25:29.018Z,40.65
2022-12-01T12:28:46.580Z,38.22
2022-12-01T12:32:14.155Z,34.85
2022-12-01T12:35:43.876Z,40.15
2022-12-01T12:38:57.660Z,37.63
2022-12-01T12:42:05.789Z,36.10
2022-12-01T12:45:27.927Z,32.03
2022-12-01T12:52:23.547Z,37.63
2022-12-01T12:55:37.361Z,39.20
2022-12-01T12:58:47.356Z,31.85
2022-12-01T13:02:01.244Z,34.30
2022-12-01T13:05:12.576Z,32.65
2022-12-01T13:08:20.279Z,38.28
2022-12-01T13:11:27.580Z,32.50
2022-12-01T13:14:38.092Z,32.47
2022-12-01T13:19:04.867Z,34.08
2022-12-01T13:22:08.161Z,31.48
2022-12-01T13:25:13.615Z,29.00
2022-12-01T13:28:22.635Z,30.55
2022-12-01T13:31:24.411Z,32.88
2022-12-01T13:34:47.376Z,32.45
2022-12-01T13:37:49.087Z,34.83
2022-12-01T13:41:21.265Z,33.50
2022-12-01T13:44:26.349Z,37.88
2022-12-01T13:47:38.611Z,34.05
2022-12-01T13:50:43.686Z,34.10
2022-12-01T13:54:06.193Z,33.15
2022-12-01T13:57:13.804Z,36.55
2022-12-01T14:00:21.570Z,33.88
2022-12-01T14:03:22.984Z,36.30
2022-12-01T14:06:50.685Z,32.38
2022-12-01T14:10:07.182Z,31.55
2022-12-01T14:13:19.004Z,34.28
2022-12-01T14:16:21.128Z,34.17
2022-12-01T14:19:36.708Z,32.35
2022-12-01T14:22:44.358Z,31.77
2022-12-01T14:26:15.822Z,32.20
2022-12-01T14:29:42.378Z,33.88
2022-12-01T14:32:43.828Z,31.55
2022-12-01T14:35:45.685Z,31.57
2022-12-01T14:38:49.861Z,35.42
2022-12-01T14:42:00.231Z,40.88
2022-12-01T14:45:03.691Z,33.90
2022-12-01T14:48:09.841Z,33.72
2022-12-01T14:51:20.835Z,38.42
2022-12-01T14:54:34.771Z,34.67
2022-12-01T14:57:49.523Z,41.40
2022-12-01T15:01:23.985Z,37.78
2022-12-01T15:04:26.053Z,33.05
2022-12-01T15:07:27.597Z,38.83
2022-12-01T15:10:35.307Z,34.63
2022-12-01T15:13:53.224Z,36.15
2022-12-01T15:16:54.759Z,38.05
2022-12-01T15:19:56.214Z,36.20
2022-12-01T15:22:58.560Z,35.10
2022-12-01T15:26:00.699Z,36.33
2022-12-01T15:29:28.256Z,37.63
2022-12-01T15:32:31.668Z,41.90
2022-12-01T15:35:33.599Z,35.35
2022-12-01T15:38:37.812Z,35.80
2022-12-01T15:41:43.096Z,38.20
2022-12-01T15:44:44.679Z,35.53
2022-12-01T15:47:48.941Z,34.85
2022-12-01T15:51:08.797Z,30.77
2022-12-01T15:54:23.154Z,33.85
2022-12-01T15:57:24.626Z,38.83
2022-12-01T16:00:27.304Z,35.53
2022-12-01T16:03:30.451Z,38.58
2022-12-01T16:06:34.881Z,35.55
2022-12-01T16:09:38.814Z,36.13
2022-12-01T16:12:40.220Z,35.60
2022-12-01T16:15:44.797Z,33.90
2022-12-01T16:18:57.523Z,37.28
2022-12-01T16:22:05.080Z,33.65
2022-12-01T16:25:06.872Z,35.65
2022-12-01T16:28:31.020Z,34.05
2022-12-01T16:31:32.649Z,36.78
2022-12-01T16:34:46.021Z,38.97
2022-12-01T16:37:48.090Z,34.35
2022-12-01T16:40:51.914Z,36.03
2022-12-01T16:44:20.326Z,37.28
2022-12-01T16:47:19.124Z,35.60
2022-12-01T16:50:22.377Z,39.83
2022-12-01T16:53:23.796Z,35.75
2022-12-01T16:56:25.187Z,48.20
2022-12-01T16:59:26.691Z,42.92
2022-12-01T17:02:28.194Z,40.77
2022-12-01T17:05:29.720Z,43.60
2022-12-01T17:08:31.454Z,38.03
2022-12-01T17:11:33.070Z,35.88
2022-12-01T17:14:35.912Z,33.83
2022-12-01T17:17:38.579Z,34.60
2022-12-01T17:20:40.036Z,37.60
2022-12-01T17:23:41.494Z,33.80
2022-12-01T17:26:42.949Z,36.40
2022-12-01T17:29:46.339Z,35.92
2022-12-01T17:32:48.046Z,35.30
2022-12-01T17:35:49.862Z,41.45
2022-12-01T17:38:51.397Z,38.22
2022-12-01T17:41:56.271Z,39.53
2022-12-01T17:44:57.777Z,39.80
2022-12-01T17:47:59.288Z,38.93
2022-12-01T17:51:00.682Z,37.30
2022-12-01T17:54:02.159Z,41.00
2022-12-01T17:57:03.866Z,38.50
2022-12-01T18:00:06.688Z,42.10
2022-12-01T18:03:11.139Z,35.92
2022-12-01T18:06:13.255Z,41.33
2022-12-01T18:09:14.697Z,41.35
2022-12-01T18:12:16.116Z,38.45
2022-12-01T18:15:18.132Z,38.70
2022-12-01T18:18:19.777Z,35.13
2022-12-01T18:21:25.070Z,39.27
2022-12-01T18:24:26.532Z,38.65
2022-12-01T18:27:28.899Z,40.43
2022-12-01T18:33:33.504Z,37.30
2022-12-01T18:36:37.305Z,34.85
2022-12-01T18:39:38.968Z,38.45
2022-12-01T18:42:40.382Z,42.08
2022-12-01T18:45:41.840Z,44.22
2022-12-01T18:48:45.827Z,40.80
2022-12-01T18:51:47.218Z,37.20
2022-12-01T18:54:48.872Z,37.35
2022-12-01T18:57:50.446Z,38.47
2022-12-01T19:00:51.887Z,38.20
2022-12-01T19:03:57.699Z,40.17
2022-12-01T19:06:59.208Z,38.40
2022-12-01T19:10:00.757Z,37.30
2022-12-01T19:13:02.187Z,39.97
2022-12-01T19:16:07.030Z,38.85
2022-12-01T19:19:09.606Z,39.50
2022-12-01T19:22:11.021Z,39.88
2022-12-01T19:25:13.420Z,45.20
2022-12-01T19:31:19.285Z,42.75
2022-12-01T19:34:20.904Z,40.60
2022-12-01T19:37:22.426Z,44.57
2022-12-01T19:40:23.799Z,44.10
2022-12-01T19:43:25.253Z,41.70
2022-12-01T19:46:28.612Z,43.25
2022-12-01T19:49:30.150Z,43.28
2022-12-01T19:52:31.538Z,40.23
2022-12-01T19:55:33.010Z,43.30
2022-12-01T19:58:34.808Z,41.00
2022-12-01T20:01:36.408Z,38.78
2022-12-01T20:04:39.475Z,39.53
2022-12-01T20:07:41.083Z,42.15
2022-12-01T20:10:47.786Z,44.88
2022-12-01T20:13:49.247Z,38.97
2022-12-01T20:16:50.764Z,39.10
2022-12-01T20:19:52.257Z,43.83
2022-12-01T20:22:53.734Z,43.58
2022-12-01T20:25:58.875Z,40.38
2022-12-01T20:29:04.224Z,37.60
2022-12-01T20:32:05.875Z,39.10
2022-12-01T20:35:07.580Z,39.40
2022-12-01T20:38:09.141Z,38.55
2022-12-01T20:41:11.094Z,42.80
2022-12-01T20:44:13.385Z,39.58
2022-12-01T20:47:18.337Z,40.03
2022-12-01T20:50:19.732Z,40.85
2022-12-01T20:53:22.289Z,73.72
2022-12-01T20:56:23.694Z,41.70
2022-12-01T20:59:25.640Z,46.40
2022-12-01T21:02:27.190Z,42.83
2022-12-01T21:05:29.067Z,42.80
2022-12-01T21:08:31.623Z,44.53
2022-12-01T21:11:55.482Z,41.45
2022-12-01T21:15:02.887Z,42.10
2022-12-01T21:18:12.315Z,43.28
2022-12-01T21:21:38.715Z,46.25
2022-12-01T21:24:44.016Z,42.72
2022-12-01T21:27:46.859Z,42.13
2022-12-01T21:30:49.487Z,38.83
2022-12-01T21:33:51.026Z,43.83
2022-12-01T21:36:56.074Z,45.63
2022-12-01T21:39:57.573Z,51.65
2022-12-01T21:43:11.367Z,42.93
2022-12-01T21:46:17.767Z,43.78
2022-12-01T21:49:30.551Z,44.88
2022-12-01T21:52:40.941Z,45.10
2022-12-01T21:55:44.596Z,42.72
2022-12-01T21:58:46.204Z,45.33
2022-12-01T22:01:56.427Z,45.10
2022-12-01T22:04:59.331Z,44.92
2022-12-01T22:08:15.253Z,41.33
2022-12-01T22:11:18.538Z,42.30
2022-12-01T22:14:40.231Z,41.65
2022-12-01T22:17:41.705Z,40.70
2022-12-01T22:20:43.096Z,43.35
2022-12-01T22:23:44.806Z,43.65
2022-12-01T22:26:49.197Z,46.63
2022-12-01T22:30:05.723Z,42.67
2022-12-01T22:33:22.608Z,43.08
2022-12-01T22:36:30.191Z,44.78
2022-12-01T22:39:35.874Z,49.78
2022-12-01T22:42:37.458Z,46.85
2022-12-01T22:45:39.280Z,51.70
2022-12-01T22:48:44.088Z,51.22
2022-12-01T22:51:50.847Z,55.13
2022-12-01T22:54:52.518Z,67.80
2022-12-01T22:57:54.982Z,50.03
2022-12-01T23:01:02.268Z,47.35
2022-12-01T23:04:21.095Z,50.03
2022-12-01T23:07:41.308Z,49.83
2022-12-01T23:10:42.845Z,47.85
2022-12-01T23:13:44.259Z,45.90
2022-12-01T23:16:45.734Z,49.45
2022-12-01T23:19:49.687Z,50.67
2022-12-01T23:22:56.648Z,52.38
2022-12-01T23:25:58.738Z,41.65
2022-12-01T23:29:01.252Z,43.75
2022-12-01T23:32:02.755Z,46.47
2022-12-01T23:35:05.799Z,46.13
2022-12-01T23:38:18.076Z,46.53
2022-12-01T23:41:38.924Z,47.97
2022-12-01T23:44:45.382Z,45.67
2022-12-01T23:47:47.408Z,46.10
2022-12-01T23:50:54.250Z,55.30
2022-12-01T23:54:00.446Z,47.95
2022-12-01T23:57:10.203Z,56.30
